createdAt,value
2018-03-25T00:00:41.848Z,99523.84
2018-03-25T00:01:48.075Z,99527.16
2018-03-25T00:02:54.225Z,99522.05
2018-03-25T00:04:00.371Z,99523.84
2018-03-25T00:05:06.900Z,99528.89
2018-03-25T00:06:14.281Z,99529.56
2018-03-25T00:07:20.522Z,99520.23
2018-03-25T00:08:26.692Z,99519.53
2018-03-25T00:09:32.897Z,99516.30
2018-03-25T00:10:39.073Z,99522.86
2018-03-25T00:11:45.222Z,99518.80
2018-03-25T00:12:51.417Z,99521.44
2018-03-25T00:13:57.610Z,99522.67
2018-03-25T00:15:03.415Z,99524.28
2018-03-25T00:16:09.929Z,99524.38
2018-03-25T00:17:16.177Z,99524.34
2018-03-25T00:18:22.373Z,99526.61
2018-03-25T00:19:28.542Z,99529.02
2018-03-25T00:20:34.709Z,99524.88
2018-03-25T00:21:40.853Z,99525.08
2018-03-25T00:22:47.009Z,99529.55
2018-03-25T00:23:53.188Z,99531.95
2018-03-25T00:25:01.536Z,99529.92
2018-03-25T00:26:11.434Z,99528.26
2018-03-25T00:27:17.870Z,99533.69
2018-03-25T00:28:24.038Z,99531.64
2018-03-25T00:29:30.288Z,99530.59
2018-03-25T00:30:36.464Z,99532.68
2018-03-25T00:31:42.600Z,99531.97
2018-03-25T00:32:48.728Z,99526.66
2018-03-25T00:33:54.961Z,99531.97
2018-03-25T00:35:00.842Z,99528.39
2018-03-25T00:36:07.016Z,99533.31
2018-03-25T00:37:13.850Z,99532.94
2018-03-25T00:38:20.069Z,99532.02
2018-03-25T00:39:26.231Z,99535.45
2018-03-25T00:40:32.654Z,99535.03
2018-03-25T00:41:38.769Z,99540.95
2018-03-25T00:42:44.909Z,99530.55
2018-03-25T00:43:51.085Z,99532.27
2018-03-25T00:44:57.334Z,99526.80
2018-03-25T00:46:07.342Z,99529.92
2018-03-25T00:47:19.004Z,99531.22
2018-03-25T00:48:25.770Z,99529.44
2018-03-25T00:49:32.156Z,99532.45
2018-03-25T00:50:38.094Z,99529.18
2018-03-25T00:51:44.238Z,99533.37
2018-03-25T00:52:51.254Z,99531.28
2018-03-25T00:53:57.461Z,99527.40
2018-03-25T00:55:03.926Z,99531.77
2018-03-25T00:56:09.691Z,99526.59
2018-03-25T00:57:15.839Z,99531.77
2018-03-25T00:58:21.875Z,99529.92
2018-03-25T00:59:28.665Z,99525.56
2018-03-25T01:00:40.985Z,99527.05
2018-03-25T01:01:47.735Z,99530.64
2018-03-25T01:02:53.961Z,99531.47
2018-03-25T01:04:00.213Z,99530.72
2018-03-25T01:05:06.422Z,99533.61
2018-03-25T01:06:11.936Z,99529.37
2018-03-25T01:07:17.999Z,99523.78
2018-03-25T01:08:24.239Z,99525.56
2018-03-25T01:09:30.463Z,99525.08
2018-03-25T01:10:37.098Z,99522.73
2018-03-25T01:11:43.244Z,99523.91
2018-03-25T01:12:49.297Z,99526.23
2018-03-25T01:13:55.481Z,99521.69
2018-03-25T01:15:06.506Z,99530.88
2018-03-25T01:16:18.319Z,99523.09
2018-03-25T01:17:24.726Z,99529.03
2018-03-25T01:18:31.052Z,99523.09
2018-03-25T01:19:37.220Z,99522.64
2018-03-25T01:20:48.644Z,99525.28
2018-03-25T01:21:54.785Z,99527.83
2018-03-25T01:23:01.023Z,99534.80
2018-03-25T01:24:06.863Z,99526.16
2018-03-25T01:25:12.846Z,99528.79
2018-03-25T01:26:18.813Z,99525.23
2018-03-25T01:27:25.113Z,99528.19
2018-03-25T01:28:31.272Z,99529.16
2018-03-25T01:29:37.628Z,99520.98
2018-03-25T01:30:52.076Z,99525.45
2018-03-25T01:31:58.235Z,99530.13
2018-03-25T01:33:04.093Z,99523.80
2018-03-25T01:34:10.329Z,99525.03
2018-03-25T01:35:16.452Z,99520.72
2018-03-25T01:36:22.597Z,99525.08
2018-03-25T01:37:28.965Z,99524.97
2018-03-25T01:38:35.175Z,99522.38
2018-03-25T01:39:46.645Z,99516.68
2018-03-25T01:40:52.815Z,99518.08
2018-03-25T01:41:59.074Z,99520.67
2018-03-25T01:43:05.228Z,99516.81
2018-03-25T01:44:11.436Z,99518.95
2018-03-25T01:45:17.357Z,99520.34
2018-03-25T01:46:24.292Z,99514.81
2018-03-25T01:47:30.510Z,99516.27
2018-03-25T01:48:36.693Z,99517.51
2018-03-25T01:49:49.831Z,99514.87
2018-03-25T01:50:56.879Z,99516.97
2018-03-25T01:52:03.178Z,99518.16
2018-03-25T01:53:09.421Z,99513.14
2018-03-25T01:54:20.829Z,99517.02
2018-03-25T01:55:27.062Z,99517.44
2018-03-25T01:56:33.561Z,99511.91
2018-03-25T01:57:39.773Z,99520.19
2018-03-25T01:58:45.990Z,99518.03
2018-03-25T01:59:52.189Z,99522.48
2018-03-25T02:00:58.390Z,99517.18
2018-03-25T02:02:04.208Z,99518.89
2018-03-25T02:03:10.344Z,99516.27
2018-03-25T02:04:16.660Z,99522.33
2018-03-25T02:05:22.584Z,99518.03
2018-03-25T02:06:29.716Z,99519.81
2018-03-25T02:07:37.948Z,99517.98
2018-03-25T02:08:43.745Z,99515.41
2018-03-25T02:09:49.945Z,99514.92
2018-03-25T02:11:01.309Z,99516.59
2018-03-25T02:12:07.456Z,99519.55
2018-03-25T02:13:13.372Z,99516.64
2018-03-25T02:14:19.606Z,99517.92
2018-03-25T02:15:27.303Z,99519.72
2018-03-25T02:16:33.275Z,99519.38
2018-03-25T02:17:39.624Z,99523.30
2018-03-25T02:18:45.832Z,99527.59
2018-03-25T02:19:51.993Z,99522.02
2018-03-25T02:20:58.243Z,99518.14
2018-03-25T02:22:04.675Z,99517.75
2018-03-25T02:23:10.878Z,99512.94
2018-03-25T02:24:17.037Z,99518.13
2018-03-25T02:25:23.269Z,99518.62
2018-03-25T02:26:29.399Z,99515.08
2018-03-25T02:27:35.535Z,99509.55
2018-03-25T02:28:42.656Z,99511.27
2018-03-25T02:29:48.846Z,99518.67
2018-03-25T02:30:55.010Z,99515.76
2018-03-25T02:32:05.059Z,99515.44
2018-03-25T02:33:11.324Z,99516.81
2018-03-25T02:34:17.497Z,99514.58
2018-03-25T02:35:23.657Z,99514.58
2018-03-25T02:36:29.871Z,99514.52
2018-03-25T02:37:36.094Z,99511.09
2018-03-25T02:38:42.320Z,99508.41
2018-03-25T02:39:48.499Z,99518.67
2018-03-25T02:40:54.655Z,99515.77
2018-03-25T02:42:00.799Z,99520.50
2018-03-25T02:43:06.739Z,99516.30
2018-03-25T02:44:12.897Z,99516.34
2018-03-25T02:45:19.127Z,99520.17
2018-03-25T02:46:25.329Z,99518.44
2018-03-25T02:47:31.479Z,99519.30
2018-03-25T02:48:37.770Z,99517.09
2018-03-25T02:49:43.946Z,99522.69
2018-03-25T02:50:50.089Z,99519.34
2018-03-25T02:51:56.279Z,99525.60
2018-03-25T02:53:08.199Z,99525.12
2018-03-25T02:54:15.067Z,99523.07
2018-03-25T02:55:26.314Z,99525.27
2018-03-25T02:56:32.506Z,99524.84
2018-03-25T02:57:39.960Z,99521.83
2018-03-25T02:58:46.177Z,99525.32
2018-03-25T02:59:52.348Z,99519.69
2018-03-25T03:00:58.593Z,99525.02
2018-03-25T03:02:04.449Z,99523.26
2018-03-25T03:03:10.733Z,99527.36
2018-03-25T03:04:16.864Z,99523.54
2018-03-25T03:05:23.072Z,99522.25
2018-03-25T03:06:29.236Z,99519.72
2018-03-25T03:07:35.659Z,99525.22
2018-03-25T03:08:41.833Z,99519.96
2018-03-25T03:09:48.020Z,99521.16
2018-03-25T03:10:54.178Z,99526.80
2018-03-25T03:12:00.345Z,99528.08
2018-03-25T03:13:06.651Z,99525.30
2018-03-25T03:14:22.247Z,99526.59
2018-03-25T03:15:32.639Z,99521.05
2018-03-25T03:16:38.837Z,99527.48
2018-03-25T03:17:44.767Z,99526.16
2018-03-25T03:18:50.966Z,99525.69
2018-03-25T03:19:57.133Z,99525.26
2018-03-25T03:21:03.318Z,99529.13
2018-03-25T03:22:09.494Z,99531.23
2018-03-25T03:23:15.724Z,99528.22
2018-03-25T03:24:27.548Z,99530.38
2018-03-25T03:25:33.765Z,99527.84
2018-03-25T03:26:39.984Z,99534.23
2018-03-25T03:27:46.273Z,99531.18
2018-03-25T03:28:53.730Z,99538.05
2018-03-25T03:30:00.765Z,99538.39
2018-03-25T03:31:07.841Z,99541.40
2018-03-25T03:32:14.024Z,99539.73
2018-03-25T03:33:20.243Z,99541.15
2018-03-25T03:34:26.595Z,99538.63
2018-03-25T03:35:32.914Z,99541.20
2018-03-25T03:36:39.361Z,99543.64
2018-03-25T03:37:45.565Z,99539.34
2018-03-25T03:38:51.779Z,99541.06
2018-03-25T03:39:57.914Z,99538.14
2018-03-25T03:41:03.728Z,99542.48
2018-03-25T03:42:09.914Z,99542.05
2018-03-25T03:43:16.126Z,99540.38
2018-03-25T03:44:24.274Z,99536.52
2018-03-25T03:45:30.611Z,99537.03
2018-03-25T03:46:36.838Z,99536.60
2018-03-25T03:47:42.997Z,99545.63
2018-03-25T03:48:54.400Z,99533.47
2018-03-25T03:50:00.589Z,99538.19
2018-03-25T03:51:07.337Z,99538.19
2018-03-25T03:52:13.497Z,99529.22
2018-03-25T03:53:19.640Z,99536.98
2018-03-25T03:54:25.544Z,99533.94
2018-03-25T03:55:32.085Z,99536.13
2018-03-25T03:56:38.749Z,99532.22
2018-03-25T03:57:44.930Z,99534.88
2018-03-25T03:58:54.293Z,99534.06
2018-03-25T04:01:14.313Z,99536.98
2018-03-25T04:02:20.584Z,99536.60
2018-03-25T04:03:26.882Z,99537.97
2018-03-25T04:04:33.117Z,99538.80
2018-03-25T04:05:39.287Z,99540.42
2018-03-25T04:06:45.467Z,99540.16
2018-03-25T04:07:51.642Z,99540.03
2018-03-25T04:08:57.872Z,99541.84
2018-03-25T04:10:08.788Z,99537.07
2018-03-25T04:11:14.970Z,99539.69
2018-03-25T04:12:21.298Z,99543.52
2018-03-25T04:13:27.595Z,99545.73
2018-03-25T04:14:33.780Z,99544.41
2018-03-25T04:15:39.932Z,99550.81
2018-03-25T04:16:47.057Z,99547.07
2018-03-25T04:17:53.240Z,99548.36
2018-03-25T04:18:59.516Z,99549.64
2018-03-25T04:20:05.077Z,99555.14
2018-03-25T04:21:11.246Z,99549.09
2018-03-25T04:22:17.064Z,99551.97
2018-03-25T04:23:23.246Z,99555.53
2018-03-25T04:24:29.499Z,99548.86
2018-03-25T04:25:42.585Z,99556.27
2018-03-25T04:26:49.049Z,99557.41
2018-03-25T04:27:54.861Z,99561.23
2018-03-25T04:29:02.919Z,99559.52
2018-03-25T04:30:09.356Z,99557.38
2018-03-25T04:31:15.577Z,99555.34
2018-03-25T04:32:21.773Z,99558.77
2018-03-25T04:33:28.108Z,99559.95
2018-03-25T04:34:37.150Z,99559.09
2018-03-25T04:35:43.352Z,99556.98
2018-03-25T04:36:49.619Z,99556.05
2018-03-25T04:37:55.831Z,99558.34
2018-03-25T04:39:04.330Z,99561.70
2018-03-25T04:40:10.646Z,99554.05
2018-03-25T04:41:17.193Z,99556.27
2018-03-25T04:42:23.383Z,99554.80
2018-03-25T04:43:32.493Z,99559.56
2018-03-25T04:44:38.668Z,99557.77
2018-03-25T04:45:44.520Z,99561.16
2018-03-25T04:46:50.914Z,99556.05
2018-03-25T04:47:57.143Z,99558.63
2018-03-25T04:49:03.300Z,99554.41
2018-03-25T04:50:13.515Z,99555.30
2018-03-25T04:51:21.661Z,99556.66
2018-03-25T04:52:28.245Z,99561.42
2018-03-25T04:53:34.416Z,99557.63
2018-03-25T04:54:40.617Z,99557.14
2018-03-25T04:55:47.727Z,99559.70
2018-03-25T04:56:54.014Z,99559.24
2018-03-25T04:58:04.079Z,99560.42
2018-03-25T04:59:10.399Z,99558.27
2018-03-25T05:00:16.638Z,99553.66
2018-03-25T05:01:22.866Z,99560.49
2018-03-25T05:02:29.489Z,99554.09
2018-03-25T05:03:35.656Z,99553.30
2018-03-25T05:04:41.818Z,99556.70
2018-03-25T05:05:47.963Z,99552.77
2018-03-25T05:06:53.845Z,99558.78
2018-03-25T05:08:00.070Z,99556.31
2018-03-25T05:09:11.237Z,99559.31
2018-03-25T05:10:17.544Z,99566.65
2018-03-25T05:11:24.138Z,99563.61
2018-03-25T05:12:30.435Z,99553.34
2018-03-25T05:13:36.575Z,99560.95
2018-03-25T05:14:42.785Z,99564.31
2018-03-25T05:15:49.043Z,99564.79
2018-03-25T05:16:55.278Z,99563.14
2018-03-25T05:18:01.644Z,99566.22
2018-03-25T05:19:09.247Z,99563.61
2018-03-25T05:20:15.468Z,99565.25
2018-03-25T05:21:21.633Z,99565.25
2018-03-25T05:22:28.041Z,99559.09
2018-03-25T05:23:34.272Z,99566.78
2018-03-25T05:24:46.706Z,99562.20
2018-03-25T05:25:54.848Z,99573.80
2018-03-25T05:27:02.029Z,99569.94
2018-03-25T05:28:08.185Z,99565.72
2018-03-25T05:29:14.377Z,99569.11
2018-03-25T05:30:20.867Z,99570.36
2018-03-25T05:31:36.326Z,99568.61
2018-03-25T05:32:42.438Z,99570.64
2018-03-25T05:33:48.610Z,99574.08
2018-03-25T05:34:54.892Z,99574.50
2018-03-25T05:36:01.037Z,99579.16
2018-03-25T05:37:07.206Z,99579.42
2018-03-25T05:38:19.698Z,99583.63
2018-03-25T05:39:30.922Z,99588.79
2018-03-25T05:40:38.916Z,99579.42
2018-03-25T05:41:45.165Z,99584.02
2018-03-25T05:42:51.346Z,99584.06
2018-03-25T05:43:57.540Z,99582.64
2018-03-25T05:45:07.954Z,99582.60
2018-03-25T05:46:14.104Z,99583.46
2018-03-25T05:47:20.351Z,99587.67
2018-03-25T05:48:26.540Z,99588.09
2018-03-25T05:49:32.779Z,99588.14
2018-03-25T05:50:38.953Z,99591.11
2018-03-25T05:51:52.098Z,99591.79
2018-03-25T05:53:03.361Z,99593.03
2018-03-25T05:54:12.284Z,99595.91
2018-03-25T05:55:18.594Z,99594.17
2018-03-25T05:56:24.846Z,99588.11
2018-03-25T05:57:31.017Z,99597.09
2018-03-25T05:58:38.077Z,99594.08
2018-03-25T05:59:43.991Z,99594.08
2018-03-25T06:00:50.165Z,99594.45
2018-03-25T06:02:02.236Z,99591.45
2018-03-25T06:03:08.392Z,99595.71
2018-03-25T06:04:14.599Z,99596.52
2018-03-25T06:05:23.757Z,99596.47
2018-03-25T06:06:35.372Z,99594.59
2018-03-25T06:07:41.562Z,99590.28
2018-03-25T06:08:47.753Z,99590.61
2018-03-25T06:09:53.871Z,99594.05
2018-03-25T06:11:00.025Z,99598.15
2018-03-25T06:12:06.212Z,99594.39
2018-03-25T06:13:18.410Z,99594.59
2018-03-25T06:14:24.537Z,99601.95
2018-03-25T06:15:30.841Z,99590.98
2018-03-25T06:16:36.979Z,99592.39
2018-03-25T06:17:43.343Z,99592.80
2018-03-25T06:18:50.285Z,99593.45
2018-03-25T06:19:56.458Z,99594.68
2018-03-25T06:21:06.592Z,99595.92
2018-03-25T06:22:18.030Z,99592.34
2018-03-25T06:23:24.293Z,99597.70
2018-03-25T06:24:30.777Z,99598.13
2018-03-25T06:25:37.014Z,99598.69
2018-03-25T06:26:43.172Z,99599.44
2018-03-25T06:27:49.720Z,99602.76
2018-03-25T06:28:55.967Z,99599.13
2018-03-25T06:30:02.300Z,99599.98
2018-03-25T06:31:08.442Z,99605.80
2018-03-25T06:32:14.638Z,99604.70
2018-03-25T06:33:23.874Z,99603.52
2018-03-25T06:34:34.887Z,99604.16
2018-03-25T06:35:41.455Z,99605.80
2018-03-25T06:36:51.179Z,99607.03
2018-03-25T06:37:57.401Z,99606.16
2018-03-25T06:39:03.285Z,99604.57
2018-03-25T06:40:15.543Z,99604.25
2018-03-25T06:41:21.713Z,99605.48
2018-03-25T06:42:27.922Z,99605.75
2018-03-25T06:43:34.161Z,99602.75
2018-03-25T06:44:44.451Z,99608.80
2018-03-25T06:45:58.459Z,99601.30
2018-03-25T06:47:04.667Z,99601.15
2018-03-25T06:48:13.788Z,99608.45
2018-03-25T06:49:19.973Z,99607.39
2018-03-25T06:50:27.527Z,99611.81
2018-03-25T06:51:34.993Z,99610.27
2018-03-25T06:52:42.025Z,99608.17
2018-03-25T06:53:48.519Z,99614.48
2018-03-25T06:54:54.799Z,99610.91
2018-03-25T06:56:02.049Z,99608.14
2018-03-25T06:57:17.266Z,99611.69
2018-03-25T06:58:28.335Z,99607.89
2018-03-25T06:59:35.156Z,99608.23
2018-03-25T07:00:41.481Z,99607.02
2018-03-25T07:01:47.882Z,99608.52
2018-03-25T07:02:54.562Z,99612.73
2018-03-25T07:04:04.400Z,99610.67
2018-03-25T07:05:11.607Z,99617.77
2018-03-25T07:06:17.915Z,99619.06
2018-03-25T07:07:24.509Z,99612.77
2018-03-25T07:08:30.841Z,99617.44
2018-03-25T07:09:37.041Z,99619.57
2018-03-25T07:10:43.233Z,99621.95
2018-03-25T07:11:49.181Z,99618.62
2018-03-25T07:12:55.367Z,99627.64
2018-03-25T07:14:02.010Z,99627.58
2018-03-25T07:15:12.927Z,99624.59
2018-03-25T07:16:19.862Z,99629.78
2018-03-25T07:17:26.368Z,99622.67
2018-03-25T07:18:33.207Z,99628.52
2018-03-25T07:19:39.575Z,99632.35
2018-03-25T07:20:47.389Z,99625.38
2018-03-25T07:21:54.355Z,99638.92
2018-03-25T07:23:01.695Z,99634.76
2018-03-25T07:24:08.922Z,99628.28
2018-03-25T07:25:15.537Z,99634.27
2018-03-25T07:26:22.383Z,99632.55
2018-03-25T07:27:29.416Z,99633.83
2018-03-25T07:28:36.122Z,99635.52
2018-03-25T07:29:42.879Z,99635.27
2018-03-25T07:30:56.415Z,99640.55
2018-03-25T07:32:03.799Z,99639.55
2018-03-25T07:33:10.782Z,99635.97
2018-03-25T07:34:17.626Z,99640.29
2018-03-25T07:35:24.678Z,99649.13
2018-03-25T07:36:31.637Z,99647.04
2018-03-25T07:37:39.179Z,99648.55
2018-03-25T07:38:46.017Z,99644.25
2018-03-25T07:39:57.689Z,99644.01
2018-03-25T07:41:09.891Z,99648.41
2018-03-25T07:42:17.436Z,99649.51
2018-03-25T07:43:23.876Z,99644.27
2018-03-25T07:44:32.520Z,99644.20
2018-03-25T07:45:38.771Z,99647.58
2018-03-25T07:46:45.071Z,99650.13
2018-03-25T07:47:51.373Z,99650.89
2018-03-25T07:48:59.469Z,99657.80
2018-03-25T07:50:06.998Z,99652.80
2018-03-25T07:51:13.029Z,99658.91
2018-03-25T07:52:19.286Z,99656.09
2018-03-25T07:53:25.547Z,99658.97
2018-03-25T07:54:31.719Z,99663.24
2018-03-25T07:55:39.944Z,99664.64
2018-03-25T07:56:46.756Z,99666.38
2018-03-25T07:57:53.721Z,99663.59
2018-03-25T07:58:59.972Z,99671.41
2018-03-25T08:00:05.867Z,99670.12
2018-03-25T08:01:11.807Z,99671.23
2018-03-25T08:02:18.009Z,99669.50
2018-03-25T08:03:24.307Z,99676.83
2018-03-25T08:04:30.469Z,99669.52
2018-03-25T08:05:36.870Z,99671.92
2018-03-25T08:06:43.079Z,99677.91
2018-03-25T08:07:55.001Z,99677.70
2018-03-25T08:09:02.332Z,99675.88
2018-03-25T08:10:08.688Z,99677.29
2018-03-25T08:11:14.858Z,99677.66
2018-03-25T08:12:21.037Z,99682.19
2018-03-25T08:13:28.335Z,99676.53
2018-03-25T08:14:35.849Z,99679.41
2018-03-25T08:15:42.056Z,99683.41
2018-03-25T08:16:48.729Z,99685.44
2018-03-25T08:17:54.981Z,99681.97
2018-03-25T08:19:01.800Z,99681.70
2018-03-25T08:20:14.044Z,99682.43
2018-03-25T08:21:20.354Z,99684.12
2018-03-25T08:22:26.583Z,99686.58
2018-03-25T08:23:32.825Z,99684.42
2018-03-25T08:24:39.047Z,99694.30
2018-03-25T08:25:55.257Z,99683.50
2018-03-25T08:27:01.629Z,99690.30
2018-03-25T08:28:07.944Z,99691.23
2018-03-25T08:29:14.934Z,99688.46
2018-03-25T08:30:21.380Z,99692.61
2018-03-25T08:31:27.723Z,99695.77
2018-03-25T08:32:33.985Z,99693.75
2018-03-25T08:33:45.462Z,99700.41
2018-03-25T08:34:51.908Z,99695.70
2018-03-25T08:36:01.206Z,99694.28
2018-03-25T08:37:21.965Z,99700.84
2018-03-25T08:38:28.348Z,99692.22
2018-03-25T08:39:39.571Z,99700.56
2018-03-25T08:40:45.942Z,99700.87
2018-03-25T08:41:52.232Z,99699.51
2018-03-25T08:42:58.521Z,99694.86
2018-03-25T08:44:04.747Z,99696.06
2018-03-25T08:45:10.975Z,99697.04
2018-03-25T08:46:17.251Z,99700.32
2018-03-25T08:47:28.702Z,99699.36
2018-03-25T08:48:35.012Z,99701.56
2018-03-25T08:49:47.298Z,99708.69
2018-03-25T08:50:55.430Z,99701.20
2018-03-25T08:52:01.714Z,99701.92
2018-03-25T08:53:07.931Z,99698.61
2018-03-25T08:54:18.857Z,99703.09
2018-03-25T08:55:25.152Z,99705.93
2018-03-25T08:56:31.752Z,99699.81
2018-03-25T08:57:37.984Z,99709.33
2018-03-25T08:58:44.201Z,99708.32
2018-03-25T08:59:50.222Z,99702.06
2018-03-25T09:00:56.428Z,99708.36
2018-03-25T09:02:02.716Z,99698.83
2018-03-25T09:03:09.041Z,99705.23
2018-03-25T09:04:15.338Z,99708.92
2018-03-25T09:05:21.528Z,99708.34
2018-03-25T09:06:27.751Z,99701.34
2018-03-25T09:07:33.998Z,99706.19
2018-03-25T09:08:40.319Z,99699.05
2018-03-25T09:09:48.785Z,99698.98
2018-03-25T09:10:55.033Z,99697.50
2018-03-25T09:12:01.267Z,99697.06
2018-03-25T09:13:07.207Z,99695.95
2018-03-25T09:14:13.391Z,99697.98
2018-03-25T09:15:19.823Z,99696.47
2018-03-25T09:16:26.207Z,99698.35
2018-03-25T09:17:32.617Z,99701.09
2018-03-25T09:18:38.844Z,99697.98
2018-03-25T09:19:44.926Z,99702.68
2018-03-25T09:20:52.011Z,99699.73
2018-03-25T09:21:58.306Z,99700.59
2018-03-25T09:23:11.765Z,99691.23
2018-03-25T09:24:21.038Z,99695.52
2018-03-25T09:25:27.870Z,99686.74
2018-03-25T09:26:33.875Z,99690.81
2018-03-25T09:27:40.214Z,99694.89
2018-03-25T09:28:46.513Z,99690.95
2018-03-25T09:30:07.882Z,99695.39
2018-03-25T09:31:14.818Z,99692.05
2018-03-25T09:32:24.660Z,99695.87
2018-03-25T09:33:31.171Z,99696.09
2018-03-25T09:34:43.674Z,99693.55
2018-03-25T09:35:49.973Z,99686.80
2018-03-25T09:36:56.245Z,99687.78
2018-03-25T09:38:07.534Z,99687.08
2018-03-25T09:39:13.795Z,99689.45
2018-03-25T09:40:20.092Z,99689.92
2018-03-25T09:41:26.318Z,99689.70
2018-03-25T09:42:33.444Z,99689.89
2018-03-25T09:43:39.701Z,99688.37
2018-03-25T09:44:45.928Z,99694.48
2018-03-25T09:45:52.271Z,99695.36
2018-03-25T09:47:00.671Z,99694.26
2018-03-25T09:48:06.970Z,99695.97
2018-03-25T09:49:13.382Z,99697.77
2018-03-25T09:50:20.980Z,99694.16
2018-03-25T09:51:32.340Z,99693.45
2018-03-25T09:52:40.785Z,99700.63
2018-03-25T09:53:47.219Z,99704.28
2018-03-25T09:54:53.431Z,99701.96
2018-03-25T09:55:59.787Z,99702.55
2018-03-25T09:57:06.032Z,99700.55
2018-03-25T09:58:12.270Z,99701.63
2018-03-25T09:59:18.534Z,99702.51
2018-03-25T10:00:38.095Z,99702.89
2018-03-25T10:01:49.833Z,99703.30
2018-03-25T10:02:59.755Z,99705.22
2018-03-25T10:04:06.078Z,99704.27
2018-03-25T10:05:15.156Z,99707.45
2018-03-25T10:06:21.200Z,99702.46
2018-03-25T10:07:30.466Z,99703.32
2018-03-25T10:08:36.814Z,99704.72
2018-03-25T10:09:43.078Z,99694.47
2018-03-25T10:10:49.160Z,99705.52
2018-03-25T10:12:00.418Z,99702.42
2018-03-25T10:13:07.445Z,99702.69
2018-03-25T10:14:13.327Z,99703.80
2018-03-25T10:15:19.638Z,99699.73
2018-03-25T10:16:25.921Z,99699.95
2018-03-25T10:17:32.489Z,99696.03
2018-03-25T10:18:38.735Z,99707.48
2018-03-25T10:19:47.865Z,99702.08
2018-03-25T10:20:55.282Z,99700.14
2018-03-25T10:22:03.005Z,99698.36
2018-03-25T10:23:09.281Z,99706.97
2018-03-25T10:24:15.569Z,99708.67
2018-03-25T10:25:21.800Z,99706.05
2018-03-25T10:26:28.076Z,99704.90
2018-03-25T10:27:34.365Z,99704.41
2018-03-25T10:28:40.580Z,99703.79
2018-03-25T10:29:47.427Z,99704.61
2018-03-25T10:30:53.703Z,99707.83
2018-03-25T10:32:00.037Z,99709.42
2018-03-25T10:33:06.315Z,99711.05
2018-03-25T10:34:12.599Z,99708.20
2018-03-25T10:35:18.918Z,99707.56
2018-03-25T10:36:30.133Z,99707.80
2018-03-25T10:37:36.474Z,99713.56
2018-03-25T10:38:42.671Z,99712.87
2018-03-25T10:39:48.866Z,99712.37
2018-03-25T10:40:54.945Z,99716.63
2018-03-25T10:42:02.026Z,99708.48
2018-03-25T10:43:08.307Z,99706.53
2018-03-25T10:44:14.533Z,99711.87
2018-03-25T10:45:20.738Z,99712.95
2018-03-25T10:46:27.075Z,99710.02
2018-03-25T10:47:33.362Z,99712.70
2018-03-25T10:48:39.572Z,99704.61
2018-03-25T10:49:46.834Z,99709.95
2018-03-25T10:50:53.342Z,99712.10
2018-03-25T10:51:59.542Z,99714.74
2018-03-25T10:53:05.906Z,99708.95
2018-03-25T10:54:12.168Z,99717.84
2018-03-25T10:55:18.534Z,99712.77
2018-03-25T10:56:24.861Z,99717.11
2018-03-25T10:57:39.914Z,99713.04
2018-03-25T10:58:54.673Z,99712.27
2018-03-25T11:00:00.894Z,99715.33
2018-03-25T11:01:07.007Z,99706.55
2018-03-25T11:02:14.238Z,99705.20
2018-03-25T11:03:20.546Z,99702.30
2018-03-25T11:04:26.486Z,99706.16
2018-03-25T11:05:34.583Z,99701.19
2018-03-25T11:06:41.056Z,99699.70
2018-03-25T11:07:47.292Z,99698.05
2018-03-25T11:08:53.527Z,99699.73
2018-03-25T11:09:59.779Z,99699.77
2018-03-25T11:11:06.089Z,99700.78
2018-03-25T11:12:12.330Z,99698.10
2018-03-25T11:13:19.419Z,99704.77
2018-03-25T11:14:30.889Z,99707.88
2018-03-25T11:15:37.113Z,99707.20
2018-03-25T11:16:43.717Z,99709.13
2018-03-25T11:17:49.999Z,99704.02
2018-03-25T11:18:56.013Z,99709.45
2018-03-25T11:20:06.757Z,99709.02
2018-03-25T11:21:12.491Z,99716.84
2018-03-25T11:22:18.548Z,99713.59
2018-03-25T11:23:24.622Z,99717.91
2018-03-25T11:24:31.547Z,99709.73
2018-03-25T11:25:37.833Z,99715.59
2018-03-25T11:26:44.086Z,99712.56
2018-03-25T11:27:50.380Z,99710.19
2018-03-25T11:28:56.647Z,99708.32
2018-03-25T11:30:02.601Z,99710.58
2018-03-25T11:31:08.928Z,99709.80
2018-03-25T11:32:23.207Z,99709.39
2018-03-25T11:33:31.330Z,99711.13
2018-03-25T11:34:40.179Z,99711.66
2018-03-25T11:35:46.408Z,99704.46
2018-03-25T11:36:52.637Z,99701.06
2018-03-25T11:38:00.199Z,99707.79
2018-03-25T11:39:05.917Z,99704.94
2018-03-25T11:40:17.210Z,99705.73
2018-03-25T11:41:23.539Z,99706.42
2018-03-25T11:42:29.817Z,99708.16
2018-03-25T11:43:36.044Z,99702.00
2018-03-25T11:44:42.430Z,99705.50
2018-03-25T11:45:48.699Z,99699.53
2018-03-25T11:47:01.704Z,99702.30
2018-03-25T11:48:07.968Z,99701.57
2018-03-25T11:49:15.894Z,99701.52
2018-03-25T11:50:22.163Z,99705.17
2018-03-25T11:51:28.396Z,99706.06
2018-03-25T11:52:34.805Z,99704.55
2018-03-25T11:53:41.070Z,99707.82
2018-03-25T11:54:47.373Z,99706.79
2018-03-25T11:56:02.907Z,99704.60
2018-03-25T11:57:09.161Z,99706.63
2018-03-25T11:58:17.641Z,99707.30
2018-03-25T11:59:26.970Z,99709.44
2018-03-25T12:00:33.637Z,99708.12
2018-03-25T12:01:39.831Z,99705.98
2018-03-25T12:02:46.163Z,99706.68
2018-03-25T12:03:54.304Z,99704.22
2018-03-25T12:05:00.802Z,99704.75
2018-03-25T12:06:07.104Z,99706.19
2018-03-25T12:07:14.198Z,99704.84
2018-03-25T12:08:20.413Z,99708.97
2018-03-25T12:09:26.692Z,99706.28
2018-03-25T12:10:33.384Z,99704.94
2018-03-25T12:11:39.757Z,99706.75
2018-03-25T12:12:47.046Z,99702.67
2018-03-25T12:13:53.323Z,99703.09
2018-03-25T12:14:59.573Z,99706.59
2018-03-25T12:16:06.786Z,99698.22
2018-03-25T12:17:13.065Z,99705.69
2018-03-25T12:18:19.618Z,99705.49
2018-03-25T12:19:31.472Z,99698.06
2018-03-25T12:20:38.903Z,99700.66
2018-03-25T12:21:45.148Z,99702.66
2018-03-25T12:22:51.369Z,99698.33
2018-03-25T12:23:57.598Z,99700.59
2018-03-25T12:25:03.656Z,99701.25
2018-03-25T12:26:09.950Z,99698.45
2018-03-25T12:27:16.224Z,99698.72
2018-03-25T12:28:22.497Z,99697.25
2018-03-25T12:29:28.801Z,99695.77
2018-03-25T12:30:35.119Z,99694.42
2018-03-25T12:31:41.422Z,99695.12
2018-03-25T12:32:47.753Z,99694.20
2018-03-25T12:33:54.041Z,99691.22
2018-03-25T12:35:00.707Z,99693.50
2018-03-25T12:36:06.581Z,99694.86
2018-03-25T12:37:12.887Z,99692.49
2018-03-25T12:38:19.177Z,99698.19
2018-03-25T12:39:25.498Z,99692.73
2018-03-25T12:40:31.785Z,99692.72
2018-03-25T12:41:38.232Z,99692.59
2018-03-25T12:42:44.549Z,99690.63
2018-03-25T12:43:50.866Z,99691.44
2018-03-25T12:44:57.124Z,99688.20
2018-03-25T12:46:05.736Z,99690.98
2018-03-25T12:47:11.951Z,99689.88
2018-03-25T12:48:18.973Z,99689.09
2018-03-25T12:49:25.340Z,99683.88
2018-03-25T12:50:31.890Z,99691.73
2018-03-25T12:51:38.207Z,99688.14
2018-03-25T12:52:44.456Z,99686.14
2018-03-25T12:53:55.786Z,99688.98
2018-03-25T12:55:02.092Z,99684.70
2018-03-25T12:56:08.533Z,99686.47
2018-03-25T12:57:16.867Z,99681.84
2018-03-25T12:58:23.132Z,99684.50
2018-03-25T12:59:29.346Z,99688.10
2018-03-25T13:00:35.879Z,99685.52
2018-03-25T13:01:44.028Z,99687.22
2018-03-25T13:02:50.847Z,99684.41
2018-03-25T13:03:57.164Z,99683.00
2018-03-25T13:05:03.530Z,99678.55
2018-03-25T13:06:09.890Z,99682.14
2018-03-25T13:07:15.754Z,99682.11
2018-03-25T13:08:23.686Z,99676.83
2018-03-25T13:09:35.104Z,99674.64